createdAt,value
2023-05-16T00:03:42.805Z,7.50
2023-05-16T00:24:07.275Z,8.17
2023-05-16T00:34:09.665Z,8.82
2023-05-16T00:44:12.340Z,8.97
2023-05-16T00:54:15.246Z,9.43
2023-05-16T01:04:18.068Z,11.23
2023-05-16T01:14:29.216Z,9.73
2023-05-16T01:25:19.070Z,11.57
2023-05-16T01:35:21.709Z,10.17
2023-05-16T01:45:30.228Z,10.40
2023-05-16T01:55:49.622Z,10.80
2023-05-16T02:05:52.656Z,11.38
2023-05-16T02:15:54.816Z,10.70
2023-05-16T02:25:59.491Z,11.10
2023-05-16T02:36:08.946Z,11.67
2023-05-16T02:46:28.726Z,12.50
2023-05-16T02:56:36.259Z,12.48
2023-05-16T03:06:38.422Z,11.17
2023-05-16T03:16:44.132Z,10.57
2023-05-16T03:26:46.398Z,8.90
2023-05-16T03:36:51.185Z,8.40
2023-05-16T03:46:56.420Z,7.90
2023-05-16T03:57:01.734Z,7.13
2023-05-16T04:07:04.082Z,8.00
2023-05-16T04:17:08.662Z,8.88
2023-05-16T04:27:11.058Z,7.15
2023-05-16T04:37:13.418Z,7.05
2023-05-16T04:47:17.912Z,6.72
2023-05-16T04:57:24.975Z,9.10
2023-05-16T05:07:29.535Z,5.82
2023-05-16T05:17:31.733Z,6.13
2023-05-16T05:27:36.491Z,6.63
2023-05-16T05:37:46.261Z,7.80
2023-05-16T05:47:51.364Z,6.05
2023-05-16T05:57:53.666Z,7.50
2023-05-16T06:07:58.134Z,7.43
2023-05-16T06:18:01.140Z,9.07
2023-05-16T06:28:05.498Z,9.80
2023-05-16T06:38:07.577Z,8.95
2023-05-16T06:48:09.765Z,9.48
2023-05-16T06:58:14.697Z,8.00
2023-05-16T07:08:19.480Z,7.65
2023-05-16T07:18:21.630Z,8.02
2023-05-16T07:28:28.796Z,8.10
2023-05-16T07:38:31.144Z,7.30
2023-05-16T07:48:42.942Z,3.90
2023-05-16T07:58:51.179Z,5.40
2023-05-16T08:08:53.513Z,4.88
2023-05-16T08:18:55.877Z,6.25
2023-05-16T08:28:58.151Z,3.90
2023-05-16T08:39:00.498Z,3.88
2023-05-16T08:49:05.112Z,4.90
2023-05-16T08:59:13.518Z,4.72
2023-05-16T09:09:15.891Z,3.72
2023-05-16T09:19:18.200Z,7.72
2023-05-16T09:29:23.069Z,4.18
2023-05-16T09:39:34.973Z,3.55
2023-05-16T09:49:40.133Z,3.22
2023-05-16T09:59:43.013Z,3.53
2023-05-16T10:09:53.693Z,7.03
2023-05-16T10:19:58.887Z,3.25
2023-05-16T10:30:03.884Z,3.45
2023-05-16T10:50:34.197Z,5.55
2023-05-16T11:00:36.332Z,3.58
2023-05-16T11:10:38.573Z,2.67
2023-05-16T11:20:41.562Z,2.47
2023-05-16T11:30:57.928Z,4.55
2023-05-16T11:41:07.326Z,2.78
2023-05-16T11:51:12.118Z,4.30
2023-05-16T12:01:14.613Z,5.32
2023-05-16T12:11:19.532Z,3.45
2023-05-16T12:21:23.957Z,2.75
2023-05-16T12:31:31.557Z,2.88
2023-05-16T12:41:42.211Z,2.83
2023-05-16T12:51:52.807Z,3.55
2023-05-16T13:01:57.517Z,4.95
2023-05-16T13:12:02.311Z,2.90
2023-05-16T13:22:05.908Z,5.78
2023-05-16T13:32:13.310Z,3.38
2023-05-16T13:42:18.033Z,2.80
2023-05-16T13:52:24.054Z,3.33
2023-05-16T14:02:29.046Z,2.70
2023-05-16T14:12:36.605Z,4.00
2023-05-16T14:22:41.320Z,2.70
2023-05-16T14:32:48.406Z,2.08
2023-05-16T14:42:55.309Z,2.13
2023-05-16T14:53:00.320Z,2.10
2023-05-16T15:03:02.917Z,3.10
2023-05-16T15:13:07.458Z,3.70
2023-05-16T15:23:10.725Z,2.95
2023-05-16T15:33:13.962Z,2.60
2023-05-16T15:43:17.484Z,4.20
2023-05-16T15:53:20.067Z,3.53
2023-05-16T16:03:22.778Z,2.22
2023-05-16T16:13:25.264Z,2.13
2023-05-16T16:23:27.436Z,2.05
2023-05-16T16:33:32.358Z,2.42
2023-05-16T16:43:37.178Z,2.85
2023-05-16T16:53:42.088Z,4.07
2023-05-16T17:03:46.703Z,3.75
2023-05-16T17:13:52.280Z,2.58
2023-05-16T17:23:55.429Z,2.75
2023-05-16T17:33:57.708Z,2.10
2023-05-16T17:44:05.397Z,3.97
2023-05-16T17:54:09.649Z,2.40
2023-05-16T18:04:18.619Z,5.30
2023-05-16T18:14:23.348Z,4.18
2023-05-16T18:24:25.549Z,4.07
2023-05-16T18:34:30.389Z,3.17
2023-05-16T18:44:32.931Z,6.38
2023-05-16T18:54:38.232Z,5.05
2023-05-16T19:04:40.867Z,4.68
2023-05-16T19:14:43.148Z,3.65
2023-05-16T19:24:47.860Z,4.35
2023-05-16T19:34:53.105Z,6.72
2023-05-16T19:44:58.088Z,4.90
2023-05-16T19:55:00.398Z,4.20
2023-05-16T20:05:02.710Z,4.28
2023-05-16T20:15:08.572Z,4.05
2023-05-16T20:25:13.360Z,4.03
2023-05-16T20:35:18.460Z,7.32
2023-05-16T20:45:20.890Z,6.88
2023-05-16T20:55:26.339Z,6.18
2023-05-16T21:05:28.943Z,7.25
2023-05-16T21:15:31.771Z,5.75
2023-05-16T21:25:34.256Z,7.43
2023-05-16T21:35:43.507Z,11.35
2023-05-16T21:45:50.498Z,6.57
2023-05-16T21:55:54.888Z,9.50
2023-05-16T22:05:59.579Z,10.55
2023-05-16T22:16:07.777Z,7.60
2023-05-16T22:26:12.195Z,7.93
2023-05-16T22:36:14.308Z,9.65
2023-05-16T22:46:18.983Z,9.13
2023-05-16T22:56:23.432Z,7.00
2023-05-16T23:06:25.621Z,8.40
2023-05-16T23:16:27.924Z,7.97
2023-05-16T23:26:32.097Z,11.55
2023-05-16T23:36:36.513Z,10.55
2023-05-16T23:46:41.446Z,14.57
2023-05-16T23:56:48.555Z,11.88
